createdAt,value
2023-04-01T00:01:17.961Z,5.20
2023-04-01T00:03:47.134Z,5.30
2023-04-01T00:06:18.547Z,5.80
2023-04-01T00:08:55.080Z,5.30
2023-04-01T00:11:24.795Z,5.50
2023-04-01T00:14:02.293Z,5.10
2023-04-01T00:16:31.419Z,5.20
2023-04-01T00:19:03.643Z,5.60
2023-04-01T00:21:38.068Z,5.30
2023-04-01T00:24:06.886Z,5.80
2023-04-01T00:26:35.541Z,6.50
2023-04-01T00:29:09.551Z,5.80
2023-04-01T00:31:40.485Z,5.90
2023-04-01T00:34:09.306Z,6.30
2023-04-01T00:36:39.680Z,5.90
2023-04-01T00:39:08.708Z,6.40
2023-04-01T00:41:49.890Z,5.80
2023-04-01T00:44:29.425Z,5.70
2023-04-01T00:47:03.656Z,6.10
2023-04-01T00:49:41.966Z,5.50
2023-04-01T00:52:14.137Z,5.30
2023-04-01T00:54:49.288Z,4.90
2023-04-01T00:57:37.786Z,4.60
2023-04-01T01:00:15.083Z,4.60
2023-04-01T01:02:49.224Z,4.40
2023-04-01T01:05:22.306Z,4.20
2023-04-01T01:08:31.645Z,4.10
2023-04-01T01:11:00.951Z,4.00
2023-04-01T01:13:38.733Z,3.80
2023-04-01T01:16:35.138Z,3.90
2023-04-01T01:19:31.310Z,4.00
2023-04-01T01:22:13.113Z,3.90
2023-04-01T01:25:19.165Z,4.10
2023-04-01T01:28:04.688Z,3.90
2023-04-01T01:30:59.281Z,3.90
2023-04-01T01:33:42.968Z,4.10
2023-04-01T01:36:17.294Z,3.50
2023-04-01T01:38:48.951Z,4.00
2023-04-01T01:41:23.192Z,3.70
2023-04-01T01:43:55.543Z,4.10
2023-04-01T01:46:30.034Z,4.00
2023-04-01T01:49:01.615Z,3.50
2023-04-01T01:51:44.444Z,3.50
2023-04-01T01:54:19.240Z,3.50
2023-04-01T01:56:52.749Z,3.80
2023-04-01T01:59:25.994Z,3.90
2023-04-01T02:02:14.395Z,3.30
2023-04-01T02:04:47.439Z,3.50
2023-04-01T02:07:28.806Z,3.30
2023-04-01T02:10:05.757Z,3.60
2023-04-01T02:12:48.041Z,3.20
2023-04-01T02:15:20.623Z,3.00
2023-04-01T02:17:53.851Z,3.30
2023-04-01T02:20:25.969Z,3.10
2023-04-01T02:23:00.908Z,3.10
2023-04-01T02:25:37.804Z,2.70
2023-04-01T02:28:14.776Z,2.50
2023-04-01T02:30:47.259Z,3.00
2023-04-01T02:33:16.768Z,3.10
2023-04-01T02:35:52.051Z,3.70
2023-04-01T02:38:23.661Z,3.80
2023-04-01T02:40:59.367Z,3.70
2023-04-01T02:43:29.213Z,4.00
2023-04-01T02:45:58.310Z,4.10
2023-04-01T02:48:26.794Z,3.60
2023-04-01T02:51:08.282Z,3.60
2023-04-01T02:53:39.939Z,3.20
2023-04-01T02:56:22.659Z,3.30
2023-04-01T02:58:51.852Z,2.90
2023-04-01T03:01:26.230Z,2.70
2023-04-01T03:03:54.849Z,3.10
2023-04-01T03:06:23.744Z,2.80
2023-04-01T03:08:52.315Z,2.60
2023-04-01T03:11:22.325Z,2.50
2023-04-01T03:14:04.552Z,2.40
2023-04-01T03:16:33.138Z,2.40
2023-04-01T03:19:08.078Z,2.10
2023-04-01T03:21:37.381Z,2.10
2023-04-01T03:24:09.440Z,2.10
2023-04-01T03:26:44.053Z,2.30
2023-04-01T03:29:17.068Z,2.50
2023-04-01T03:31:46.560Z,2.30
2023-04-01T03:34:15.569Z,2.60
2023-04-01T03:36:44.736Z,2.40
2023-04-01T03:39:14.652Z,2.20
2023-04-01T03:41:43.445Z,2.00
2023-04-01T03:44:12.752Z,1.90
2023-04-01T03:46:42.424Z,2.00
2023-04-01T03:49:14.122Z,1.60
2023-04-01T03:51:44.748Z,2.40
2023-04-01T03:54:14.038Z,2.20
2023-04-01T03:56:43.030Z,2.50
2023-04-01T03:59:12.035Z,2.50
2023-04-01T04:01:41.030Z,3.10
2023-04-01T04:04:14.635Z,3.20
2023-04-01T04:06:43.627Z,2.80
2023-04-01T04:09:12.318Z,2.80
2023-04-01T04:11:41.104Z,2.80
2023-04-01T04:14:10.200Z,2.80
2023-04-01T04:16:39.097Z,2.70
2023-04-01T04:19:08.693Z,3.00
2023-04-01T04:21:37.769Z,2.50
2023-04-01T04:24:07.211Z,2.30
2023-04-01T04:26:56.447Z,2.10
2023-04-01T04:29:25.157Z,2.40
2023-04-01T04:31:54.892Z,1.80
2023-04-01T04:34:23.768Z,1.70
2023-04-01T04:36:52.954Z,1.60
2023-04-01T04:39:22.355Z,1.60
2023-04-01T04:41:53.483Z,1.40
2023-04-01T04:44:24.613Z,1.70
2023-04-01T04:46:53.436Z,1.90
2023-04-01T04:49:29.882Z,1.70
2023-04-01T04:52:01.644Z,1.90
2023-04-01T04:54:31.243Z,2.00
2023-04-01T04:57:04.358Z,2.20
2023-04-01T04:59:38.338Z,1.90
2023-04-01T05:02:14.549Z,1.60
2023-04-01T05:04:43.610Z,1.80
2023-04-01T05:07:15.357Z,2.30
2023-04-01T05:09:48.036Z,2.50
2023-04-01T05:12:22.875Z,2.40
2023-04-01T05:15:02.710Z,1.90
2023-04-01T05:17:35.509Z,2.30
2023-04-01T05:20:06.211Z,1.80
2023-04-01T05:22:35.140Z,1.80
2023-04-01T05:25:03.727Z,1.80
2023-04-01T05:27:32.918Z,1.90
2023-04-01T05:30:03.246Z,1.70
2023-04-01T05:32:45.170Z,1.80
2023-04-01T05:35:14.062Z,2.10
2023-04-01T05:37:47.541Z,1.80
2023-04-01T05:40:16.315Z,1.60
2023-04-01T05:42:54.932Z,2.20
2023-04-01T05:45:24.568Z,2.00
2023-04-01T05:48:12.586Z,2.10
2023-04-01T05:50:44.882Z,1.80
2023-04-01T05:53:13.956Z,2.30
2023-04-01T05:55:44.804Z,2.40
2023-04-01T05:58:13.765Z,2.80
2023-04-01T06:00:46.535Z,3.00
2023-04-01T06:03:16.063Z,3.10
2023-04-01T06:05:46.197Z,3.10
2023-04-01T06:08:21.176Z,3.20
2023-04-01T06:11:17.749Z,2.50
2023-04-01T06:14:06.640Z,2.30
2023-04-01T06:16:52.105Z,2.00
2023-04-01T06:19:37.973Z,2.00
2023-04-01T06:22:32.493Z,1.90
2023-04-01T06:25:24.594Z,1.80
2023-04-01T06:28:18.524Z,1.50
2023-04-01T06:31:04.841Z,1.30
2023-04-01T06:33:57.994Z,1.10
2023-04-01T06:36:36.655Z,0.90
2023-04-01T06:39:39.898Z,1.70
2023-04-01T06:42:28.661Z,5.40
2023-04-01T06:45:01.057Z,7.50
2023-04-01T06:48:17.751Z,3.50
2023-04-01T06:51:39.059Z,3.70
2023-04-01T06:54:46.052Z,2.40
2023-04-01T06:57:42.802Z,5.20
2023-04-01T07:00:40.991Z,4.70
2023-04-01T07:03:23.463Z,3.90
2023-04-01T07:05:55.089Z,4.60
2023-04-01T07:08:29.863Z,4.80
2023-04-01T07:11:05.768Z,3.30
2023-04-01T07:14:00.942Z,6.20
2023-04-01T07:16:36.705Z,7.50
2023-04-01T07:19:32.302Z,5.60
2023-04-01T07:22:17.483Z,5.10
2023-04-01T07:25:14.766Z,6.60
2023-04-01T07:27:49.914Z,5.90
2023-04-01T07:30:44.013Z,3.10
2023-04-01T07:33:18.991Z,6.10
2023-04-01T07:35:58.942Z,6.00
2023-04-01T07:38:51.778Z,7.20
2023-04-01T07:42:01.328Z,8.20
2023-04-01T07:44:44.039Z,9.90
2023-04-01T07:47:34.649Z,5.80
2023-04-01T07:50:12.237Z,8.30
2023-04-01T07:53:00.506Z,6.00
2023-04-01T07:55:39.945Z,13.90
2023-04-01T07:58:14.248Z,11.70
2023-04-01T08:00:53.067Z,9.80
2023-04-01T08:03:40.138Z,7.60
2023-04-01T08:06:42.989Z,9.80
2023-04-01T08:09:37.450Z,7.20
2023-04-01T08:13:02.759Z,5.30
2023-04-01T08:16:07.726Z,9.20
2023-04-01T08:19:25.944Z,6.20
2023-04-01T08:21:59.842Z,4.00
2023-04-01T08:24:54.227Z,3.70
2023-04-01T08:27:46.908Z,3.30
2023-04-01T08:30:26.689Z,4.00
2023-04-01T08:33:07.438Z,7.40
2023-04-01T08:35:47.773Z,6.40
2023-04-01T08:38:35.542Z,3.90
2023-04-01T08:41:17.454Z,5.30
2023-04-01T08:44:44.930Z,3.50
2023-04-01T08:47:17.306Z,5.40
2023-04-01T08:50:24.900Z,10.80
2023-04-01T08:53:41.667Z,4.00
2023-04-01T08:56:34.137Z,3.60
2023-04-01T08:59:22.449Z,5.30
2023-04-01T09:02:07.417Z,3.70
2023-04-01T09:04:59.931Z,3.80
2023-04-01T09:07:49.213Z,2.90
2023-04-01T09:10:42.340Z,2.80
2023-04-01T09:13:48.651Z,3.60
2023-04-01T09:17:05.750Z,2.90
2023-04-01T09:19:46.816Z,3.00
2023-04-01T09:22:52.918Z,3.20
2023-04-01T09:25:54.871Z,3.00
2023-04-01T09:28:40.869Z,4.70
2023-04-01T09:31:42.987Z,3.20
2023-04-01T09:34:56.541Z,3.90
2023-04-01T09:37:51.466Z,2.60
2023-04-01T09:40:48.208Z,2.70
2023-04-01T09:43:29.902Z,4.10
2023-04-01T09:46:37.751Z,4.10
2023-04-01T09:49:45.429Z,3.40
2023-04-01T09:52:40.188Z,3.50
2023-04-01T09:55:21.688Z,3.90
2023-04-01T09:58:11.286Z,5.50
2023-04-01T10:01:35.808Z,5.30
2023-04-01T10:04:20.590Z,3.10
2023-04-01T10:07:09.592Z,3.10
2023-04-01T10:10:28.077Z,2.10
2023-04-01T10:12:59.865Z,2.40
2023-04-01T10:16:08.460Z,3.10
2023-04-01T10:19:07.116Z,2.50
2023-04-01T10:22:00.791Z,2.10
2023-04-01T10:24:57.914Z,2.30
2023-04-01T10:27:50.466Z,2.50
2023-04-01T10:31:01.220Z,3.10
2023-04-01T10:33:54.307Z,3.30
2023-04-01T10:36:36.632Z,4.20
2023-04-01T10:39:36.324Z,3.20
2023-04-01T10:43:04.015Z,4.70
2023-04-01T10:46:20.370Z,3.60
2023-04-01T10:49:05.979Z,5.40
2023-04-01T10:51:59.314Z,4.80
2023-04-01T10:55:50.970Z,5.80
2023-04-01T10:59:08.209Z,4.00
2023-04-01T11:02:26.497Z,3.50
2023-04-01T11:05:57.271Z,3.40
2023-04-01T11:08:57.710Z,2.70
2023-04-01T11:12:23.787Z,2.80
2023-04-01T11:15:05.673Z,2.20
2023-04-01T11:18:17.280Z,2.90
2023-04-01T11:21:26.629Z,5.60
2023-04-01T11:24:06.169Z,19.00
2023-04-01T11:27:09.881Z,18.20
2023-04-01T11:30:02.604Z,8.90
2023-04-01T11:32:53.830Z,16.40
2023-04-01T11:35:38.868Z,4.10
2023-04-01T11:38:36.752Z,4.60
2023-04-01T11:41:30.496Z,2.80
2023-04-01T11:44:31.002Z,6.30
2023-04-01T11:47:38.690Z,6.10
2023-04-01T11:50:25.722Z,7.00
2023-04-01T11:53:21.161Z,13.40
2023-04-01T11:56:21.725Z,8.90
2023-04-01T11:59:00.918Z,7.80
2023-04-01T12:01:47.548Z,6.40
2023-04-01T12:04:37.225Z,3.50
2023-04-01T12:07:41.111Z,2.60
2023-04-01T12:10:20.479Z,3.30
2023-04-01T12:13:23.182Z,4.10
2023-04-01T12:16:28.205Z,2.40
2023-04-01T12:19:22.878Z,1.70
2023-04-01T12:22:29.568Z,1.60
2023-04-01T12:25:28.020Z,1.20
2023-04-01T12:28:19.938Z,1.70
2023-04-01T12:31:19.568Z,1.80
2023-04-01T12:34:20.629Z,2.20
2023-04-01T12:37:22.793Z,1.80
2023-04-01T12:40:11.031Z,3.10
2023-04-01T12:42:50.468Z,1.70
2023-04-01T12:45:49.228Z,2.00
2023-04-01T12:48:35.234Z,1.90
2023-04-01T12:51:38.462Z,1.80
2023-04-01T12:54:43.321Z,1.40
2023-04-01T12:57:55.997Z,1.30
2023-04-01T13:00:33.352Z,1.60
2023-04-01T13:03:42.095Z,1.60
2023-04-01T13:06:28.315Z,1.10
2023-04-01T13:09:05.102Z,1.50
2023-04-01T13:12:07.502Z,1.80
2023-04-01T13:14:51.083Z,1.30
2023-04-01T13:17:49.399Z,1.60
2023-04-01T13:20:31.456Z,1.70
2023-04-01T13:23:26.064Z,1.70
2023-04-01T13:26:17.749Z,1.90
2023-04-01T13:29:09.693Z,1.60
2023-04-01T13:31:57.473Z,1.40
2023-04-01T13:34:50.643Z,1.60
2023-04-01T13:37:23.249Z,1.00
2023-04-01T13:39:58.402Z,0.80
2023-04-01T13:43:09.320Z,0.80
2023-04-01T13:46:03.664Z,0.80
2023-04-01T13:49:11.872Z,0.70
2023-04-01T13:52:19.052Z,0.50
2023-04-01T13:55:01.755Z,0.70
2023-04-01T13:57:50.971Z,0.90
2023-04-01T14:00:37.330Z,1.00
2023-04-01T14:03:34.626Z,1.40
2023-04-01T14:06:42.058Z,1.10
2023-04-01T14:09:22.419Z,1.30
2023-04-01T14:11:57.502Z,1.40
2023-04-01T14:14:49.706Z,1.50
2023-04-01T14:17:33.269Z,1.10
2023-04-01T14:20:28.107Z,1.10
2023-04-01T14:23:08.179Z,1.20
2023-04-01T14:25:56.206Z,1.00
2023-04-01T14:28:35.051Z,1.10
2023-04-01T14:31:31.283Z,0.80
2023-04-01T14:34:24.533Z,1.00
2023-04-01T14:37:31.296Z,1.00
2023-04-01T14:40:28.039Z,1.00
2023-04-01T14:43:20.992Z,0.90
2023-04-01T14:46:01.313Z,1.10
2023-04-01T14:48:51.876Z,1.20
2023-04-01T14:51:35.096Z,1.00
2023-04-01T14:54:24.364Z,1.50
2023-04-01T14:57:19.899Z,1.10
2023-04-01T15:00:15.181Z,1.20
2023-04-01T15:03:05.317Z,1.20
2023-04-01T15:06:07.344Z,1.00
2023-04-01T15:09:32.642Z,1.60
2023-04-01T15:12:08.709Z,1.10
2023-04-01T15:15:04.487Z,1.50
2023-04-01T15:18:09.182Z,1.00
2023-04-01T15:21:27.109Z,1.50
2023-04-01T15:24:12.038Z,1.20
2023-04-01T15:26:41.990Z,1.60
2023-04-01T15:29:52.163Z,1.40
2023-04-01T15:32:45.222Z,1.70
2023-04-01T15:35:33.782Z,2.10
2023-04-01T15:38:45.380Z,1.70
2023-04-01T15:41:45.463Z,1.70
2023-04-01T15:44:51.537Z,1.80
2023-04-01T15:47:27.436Z,1.80
2023-04-01T15:50:22.194Z,1.30
2023-04-01T15:53:32.131Z,1.50
2023-04-01T15:56:23.115Z,1.20
2023-04-01T15:59:11.508Z,1.00
2023-04-01T16:02:08.983Z,1.30
2023-04-01T16:05:03.148Z,1.20
2023-04-01T16:07:58.303Z,1.10
2023-04-01T16:10:34.832Z,1.40
2023-04-01T16:13:34.138Z,1.40
2023-04-01T16:16:34.623Z,1.70
2023-04-01T16:19:33.145Z,1.70
2023-04-01T16:22:19.942Z,1.80
2023-04-01T16:24:51.934Z,1.90
2023-04-01T16:27:24.359Z,2.30
2023-04-01T16:30:37.262Z,1.80
2023-04-01T16:33:23.091Z,2.40
2023-04-01T16:36:08.017Z,3.10
2023-04-01T16:38:53.617Z,2.50
2023-04-01T16:41:32.802Z,3.60
2023-04-01T16:44:14.917Z,3.80
2023-04-01T16:47:14.383Z,3.40
2023-04-01T16:50:03.223Z,4.40
2023-04-01T16:52:47.866Z,3.80
2023-04-01T16:55:20.037Z,3.80
2023-04-01T16:58:00.055Z,3.80
2023-04-01T17:00:52.063Z,3.60
2023-04-01T17:03:37.728Z,2.30
2023-04-01T17:06:34.692Z,2.30
2023-04-01T17:09:29.905Z,1.90
2023-04-01T17:12:41.285Z,1.70
2023-04-01T17:15:20.849Z,2.20
2023-04-01T17:17:50.977Z,2.10
2023-04-01T17:20:34.855Z,2.20
2023-04-01T17:23:22.474Z,2.10
2023-04-01T17:26:09.466Z,2.20
2023-04-01T17:28:48.393Z,2.20
2023-04-01T17:31:48.916Z,2.10
2023-04-01T17:34:40.017Z,2.40
2023-04-01T17:37:21.732Z,4.00
2023-04-01T17:40:15.604Z,4.60
2023-04-01T17:42:57.208Z,4.00
2023-04-01T17:45:39.201Z,4.30
2023-04-01T17:48:48.091Z,4.50
2023-04-01T17:51:54.976Z,4.70
2023-04-01T17:54:55.849Z,4.40
2023-04-01T17:57:48.068Z,4.60
2023-04-01T18:01:01.930Z,4.30
2023-04-01T18:03:52.168Z,5.90
2023-04-01T18:06:43.506Z,6.30
2023-04-01T18:09:35.183Z,6.50
2023-04-01T18:12:11.277Z,7.20
2023-04-01T18:14:49.629Z,6.30
2023-04-01T18:17:39.875Z,6.10
2023-04-01T18:20:33.108Z,6.50
2023-04-01T18:23:42.736Z,6.30
2023-04-01T18:26:23.051Z,6.10
2023-04-01T18:29:32.411Z,6.20
2023-04-01T18:32:14.174Z,7.20
2023-04-01T18:35:00.189Z,5.20
2023-04-01T18:37:55.298Z,5.90
2023-04-01T18:40:29.407Z,4.40
2023-04-01T18:43:21.265Z,8.70
2023-04-01T18:46:03.801Z,4.20
2023-04-01T18:48:49.834Z,3.60
2023-04-01T18:51:28.792Z,3.50
2023-04-01T18:54:13.161Z,7.40
2023-04-01T18:56:47.275Z,9.40
2023-04-01T18:59:49.885Z,10.40
2023-04-01T19:02:34.202Z,7.60
2023-04-01T19:05:25.331Z,12.20
2023-04-01T19:08:13.932Z,11.60
2023-04-01T19:11:12.025Z,9.90
2023-04-01T19:14:09.988Z,12.90
2023-04-01T19:16:54.030Z,12.80
2023-04-01T19:19:35.632Z,13.30
2023-04-01T19:22:34.099Z,11.70
2023-04-01T19:25:24.494Z,12.40
2023-04-01T19:28:03.535Z,13.20
2023-04-01T19:30:57.869Z,14.30
2023-04-01T19:33:33.275Z,12.20
2023-04-01T19:36:49.491Z,11.80
2023-04-01T19:39:50.310Z,13.90
2023-04-01T19:42:56.983Z,13.80
2023-04-01T19:45:34.659Z,11.60
2023-04-01T19:48:04.492Z,12.30
2023-04-01T19:50:48.743Z,12.90
2023-04-01T19:53:37.286Z,13.80
2023-04-01T19:56:09.771Z,11.80
2023-04-01T19:58:54.242Z,11.00
2023-04-01T20:01:59.509Z,11.60
2023-04-01T20:04:49.650Z,12.60
2023-04-01T20:07:44.228Z,12.50
2023-04-01T20:10:28.881Z,12.50
2023-04-01T20:13:28.935Z,13.20
2023-04-01T20:16:07.039Z,11.70
2023-04-01T20:19:00.968Z,11.80
2023-04-01T20:22:04.194Z,12.30
2023-04-01T20:24:46.363Z,11.80
2023-04-01T20:27:15.610Z,10.40
2023-04-01T20:29:47.846Z,11.30
2023-04-01T20:32:28.877Z,8.20
2023-04-01T20:35:19.457Z,10.30
2023-04-01T20:37:56.744Z,11.40
2023-04-01T20:40:36.112Z,9.60
2023-04-01T20:43:33.777Z,10.20
2023-04-01T20:46:28.795Z,9.40
2023-04-01T20:49:23.939Z,8.20
2023-04-01T20:52:01.775Z,10.10
2023-04-01T20:54:55.976Z,8.60
2023-04-01T20:57:31.500Z,10.20
2023-04-01T21:00:14.194Z,10.40
2023-04-01T21:02:46.349Z,8.60
2023-04-01T21:05:35.225Z,11.90
2023-04-01T21:08:26.877Z,11.70
2023-04-01T21:11:40.955Z,11.90
2023-04-01T21:14:30.523Z,9.40
2023-04-01T21:17:19.753Z,12.50
2023-04-01T21:20:07.083Z,11.90
2023-04-01T21:22:52.956Z,10.50
2023-04-01T21:25:33.954Z,9.60
2023-04-01T21:28:23.026Z,7.60
2023-04-01T21:31:19.960Z,11.80
2023-04-01T21:34:17.693Z,10.70
2023-04-01T21:37:00.412Z,11.50
2023-04-01T21:39:51.927Z,11.30
2023-04-01T21:42:50.038Z,11.80
2023-04-01T21:45:37.362Z,12.40
2023-04-01T21:48:19.324Z,9.00
2023-04-01T21:51:09.712Z,12.10
2023-04-01T21:54:19.694Z,11.60
2023-04-01T21:56:59.453Z,11.80
2023-04-01T21:59:55.657Z,11.40
2023-04-01T22:02:31.529Z,12.00
2023-04-01T22:05:29.352Z,11.90
2023-04-01T22:08:45.096Z,11.60
2023-04-01T22:11:37.550Z,12.80
2023-04-01T22:14:10.113Z,11.90
2023-04-01T22:17:04.748Z,12.00
2023-04-01T22:19:54.369Z,12.20
2023-04-01T22:22:41.365Z,12.40
2023-04-01T22:25:17.886Z,12.90
2023-04-01T22:27:58.714Z,12.70
2023-04-01T22:30:37.895Z,11.90
2023-04-01T22:33:40.326Z,12.00
2023-04-01T22:36:19.245Z,9.10
2023-04-01T22:38:49.070Z,11.30
2023-04-01T22:41:27.497Z,11.60
2023-04-01T22:43:58.622Z,12.20
2023-04-01T22:47:03.662Z,10.10
2023-04-01T22:50:00.624Z,10.60
2023-04-01T22:52:43.729Z,10.10
2023-04-01T22:55:34.167Z,10.80
2023-04-01T22:58:11.433Z,9.80
2023-04-01T23:00:43.277Z,10.00
2023-04-01T23:03:22.720Z,10.60
2023-04-01T23:05:54.880Z,10.30
2023-04-01T23:09:01.961Z,11.00
2023-04-01T23:11:49.697Z,10.30
2023-04-01T23:14:30.181Z,11.20
2023-04-01T23:17:18.003Z,10.00
2023-04-01T23:20:10.051Z,10.40
2023-04-01T23:23:01.996Z,10.90
2023-04-01T23:25:52.847Z,9.80
2023-04-01T23:28:27.937Z,9.60
2023-04-01T23:30:57.240Z,10.60
2023-04-01T23:33:26.103Z,9.50
2023-04-01T23:36:15.642Z,8.60
2023-04-01T23:38:50.466Z,9.20
2023-04-01T23:41:27.602Z,10.80
2023-04-01T23:44:02.815Z,9.20
2023-04-01T23:46:35.445Z,8.50
2023-04-01T23:49:07.757Z,10.30
2023-04-01T23:51:50.475Z,8.10
2023-04-01T23:54:26.233Z,8.90
2023-04-01T23:56:57.251Z,9.80
2023-04-01T23:59:31.985Z,9.20
